sensor_id;sensor_type;location;lat;lon;timestamp;P1;durP1;ratioP1;P2;durP2;ratioP2
39982;SDS011;25670;44.782;10.356;2022-09-09T00:02:00;17.35;;;15.63;;
39982;SDS011;25670;44.782;10.356;2022-09-09T00:04:43;21.50;;;16.33;;
39982;SDS011;25670;44.782;10.356;2022-09-09T00:10:26;22.10;;;16.92;;
39982;SDS011;25670;44.782;10.356;2022-09-09T00:13:16;23.10;;;17.13;;
39982;SDS011;25670;44.782;10.356;2022-09-09T00:18:28;20.95;;;17.58;;
39982;SDS011;25670;44.782;10.356;2022-09-09T00:21:10;20.75;;;17.92;;
39982;SDS011;25670;44.782;10.356;2022-09-09T00:23:44;24.02;;;19.42;;
39982;SDS011;25670;44.782;10.356;2022-09-09T00:31:39;22.25;;;17.52;;
39982;SDS011;25670;44.782;10.356;2022-09-09T00:34:11;30.48;;;18.15;;
39982;SDS011;25670;44.782;10.356;2022-09-09T00:36:40;26.90;;;18.30;;
39982;SDS011;25670;44.782;10.356;2022-09-09T00:39:23;19.23;;;16.52;;
39982;SDS011;25670;44.782;10.356;2022-09-09T00:42:24;24.42;;;17.40;;
39982;SDS011;25670;44.782;10.356;2022-09-09T00:44:53;19.15;;;16.95;;
39982;SDS011;25670;44.782;10.356;2022-09-09T00:53:21;19.67;;;17.45;;
39982;SDS011;25670;44.782;10.356;2022-09-09T00:58:25;21.67;;;18.90;;
39982;SDS011;25670;44.782;10.356;2022-09-09T01:00:56;24.05;;;18.77;;
39982;SDS011;25670;44.782;10.356;2022-09-09T01:04:07;25.75;;;18.33;;
39982;SDS011;25670;44.782;10.356;2022-09-09T01:06:30;21.73;;;17.63;;
39982;SDS011;25670;44.782;10.356;2022-09-09T01:17:52;24.58;;;18.33;;
39982;SDS011;25670;44.782;10.356;2022-09-09T01:20:53;24.77;;;17.02;;
39982;SDS011;25670;44.782;10.356;2022-09-09T01:26:18;23.60;;;16.98;;
39982;SDS011;25670;44.782;10.356;2022-09-09T01:28:47;28.25;;;16.35;;
39982;SDS011;25670;44.782;10.356;2022-09-09T01:31:23;24.40;;;16.38;;
39982;SDS011;25670;44.782;10.356;2022-09-09T01:33:54;14.25;;;12.93;;
39982;SDS011;25670;44.782;10.356;2022-09-09T01:36:24;19.77;;;11.93;;
39982;SDS011;25670;44.782;10.356;2022-09-09T01:38:52;12.35;;;10.73;;
39982;SDS011;25670;44.782;10.356;2022-09-09T01:41:19;16.13;;;10.38;;
39982;SDS011;25670;44.782;10.356;2022-09-09T01:43:58;14.43;;;9.52;;
39982;SDS011;25670;44.782;10.356;2022-09-09T01:46:25;8.65;;;7.00;;
39982;SDS011;25670;44.782;10.356;2022-09-09T01:48:54;10.00;;;7.72;;
39982;SDS011;25670;44.782;10.356;2022-09-09T01:51:21;9.45;;;6.78;;
39982;SDS011;25670;44.782;10.356;2022-09-09T01:53:49;6.50;;;5.45;;
39982;SDS011;25670;44.782;10.356;2022-09-09T01:56:30;6.07;;;4.82;;
39982;SDS011;25670;44.782;10.356;2022-09-09T01:59:19;6.80;;;4.15;;
39982;SDS011;25670;44.782;10.356;2022-09-09T02:04:47;13.38;;;4.93;;
39982;SDS011;25670;44.782;10.356;2022-09-09T02:10:46;12.75;;;5.13;;
39982;SDS011;25670;44.782;10.356;2022-09-09T02:13:21;5.70;;;4.63;;
39982;SDS011;25670;44.782;10.356;2022-09-09T02:18:35;4.50;;;4.03;;
39982;SDS011;25670;44.782;10.356;2022-09-09T02:23:48;5.07;;;3.55;;
39982;SDS011;25670;44.782;10.356;2022-09-09T02:26:17;7.90;;;3.67;;
39982;SDS011;25670;44.782;10.356;2022-09-09T02:28:52;8.95;;;3.10;;
39982;SDS011;25670;44.782;10.356;2022-09-09T02:31:21;5.97;;;3.20;;
39982;SDS011;25670;44.782;10.356;2022-09-09T02:33:57;7.80;;;3.53;;
39982;SDS011;25670;44.782;10.356;2022-09-09T02:36:26;6.32;;;3.22;;
39982;SDS011;25670;44.782;10.356;2022-09-09T02:38:59;3.83;;;3.53;;
39982;SDS011;25670;44.782;10.356;2022-09-09T02:41:31;9.33;;;3.50;;
39982;SDS011;25670;44.782;10.356;2022-09-09T02:43:59;6.18;;;3.70;;
39982;SDS011;25670;44.782;10.356;2022-09-09T02:52:20;4.60;;;3.50;;
39982;SDS011;25670;44.782;10.356;2022-09-09T02:54:54;3.53;;;3.22;;
39982;SDS011;25670;44.782;10.356;2022-09-09T02:57:25;5.53;;;3.17;;
39982;SDS011;25670;44.782;10.356;2022-09-09T02:59:56;3.90;;;3.38;;
39982;SDS011;25670;44.782;10.356;2022-09-09T03:02:24;3.42;;;2.97;;
39982;SDS011;25670;44.782;10.356;2022-09-09T03:04:56;4.63;;;3.20;;
39982;SDS011;25670;44.782;10.356;2022-09-09T03:07:22;3.00;;;2.80;;
39982;SDS011;25670;44.782;10.356;2022-09-09T03:09:50;5.47;;;3.20;;
39982;SDS011;25670;44.782;10.356;2022-09-09T03:12:22;4.25;;;2.70;;
39982;SDS011;25670;44.782;10.356;2022-09-09T03:14:49;5.35;;;3.42;;
39982;SDS011;25670;44.782;10.356;2022-09-09T03:17:15;11.82;;;4.57;;
39982;SDS011;25670;44.782;10.356;2022-09-09T03:19:49;6.93;;;2.95;;
39982;SDS011;25670;44.782;10.356;2022-09-09T03:22:18;5.53;;;2.55;;
39982;SDS011;25670;44.782;10.356;2022-09-09T03:24:45;2.78;;;2.58;;
39982;SDS011;25670;44.782;10.356;2022-09-09T03:27:12;3.10;;;2.53;;
39982;SDS011;25670;44.782;10.356;2022-09-09T03:29:40;3.38;;;2.47;;
39982;SDS011;25670;44.782;10.356;2022-09-09T03:32:12;3.00;;;2.58;;
39982;SDS011;25670;44.782;10.356;2022-09-09T03:34:39;2.55;;;2.35;;
39982;SDS011;25670;44.782;10.356;2022-09-09T03:37:09;3.28;;;2.40;;
39982;SDS011;25670;44.782;10.356;2022-09-09T03:39:35;7.97;;;2.22;;
39982;SDS011;25670;44.782;10.356;2022-09-09T03:42:02;3.67;;;2.45;;
39982;SDS011;25670;44.782;10.356;2022-09-09T03:44:32;7.40;;;2.90;;
39982;SDS011;25670;44.782;10.356;2022-09-09T03:46:59;3.45;;;2.28;;
39982;SDS011;25670;44.782;10.356;2022-09-09T03:49:26;2.80;;;1.75;;
39982;SDS011;25670;44.782;10.356;2022-09-09T03:51:56;2.10;;;1.92;;
39982;SDS011;25670;44.782;10.356;2022-09-09T03:54:24;2.80;;;2.60;;
39982;SDS011;25670;44.782;10.356;2022-09-09T03:56:51;2.85;;;2.13;;
39982;SDS011;25670;44.782;10.356;2022-09-09T03:59:17;7.25;;;2.67;;
39982;SDS011;25670;44.782;10.356;2022-09-09T04:01:44;3.30;;;2.03;;
39982;SDS011;25670;44.782;10.356;2022-09-09T04:04:11;2.33;;;2.20;;
39982;SDS011;25670;44.782;10.356;2022-09-09T04:06:37;3.03;;;2.17;;
39982;SDS011;25670;44.782;10.356;2022-09-09T04:09:04;3.45;;;2.35;;
39982;SDS011;25670;44.782;10.356;2022-09-09T04:11:31;4.90;;;2.38;;
39982;SDS011;25670;44.782;10.356;2022-09-09T04:13:59;3.42;;;3.20;;
39982;SDS011;25670;44.782;10.356;2022-09-09T04:16:28;7.22;;;3.33;;
39982;SDS011;25670;44.782;10.356;2022-09-09T04:18:54;8.75;;;2.47;;
39982;SDS011;25670;44.782;10.356;2022-09-09T04:21:21;2.70;;;2.50;;
39982;SDS011;25670;44.782;10.356;2022-09-09T04:23:49;9.93;;;2.50;;
39982;SDS011;25670;44.782;10.356;2022-09-09T04:26:15;6.60;;;2.88;;
39982;SDS011;25670;44.782;10.356;2022-09-09T04:28:43;7.82;;;3.78;;
39982;SDS011;25670;44.782;10.356;2022-09-09T04:31:24;5.63;;;3.15;;
39982;SDS011;25670;44.782;10.356;2022-09-09T04:33:54;6.57;;;2.70;;
39982;SDS011;25670;44.782;10.356;2022-09-09T04:36:21;7.65;;;2.45;;
39982;SDS011;25670;44.782;10.356;2022-09-09T04:38:50;6.38;;;3.10;;
39982;SDS011;25670;44.782;10.356;2022-09-09T04:41:17;4.28;;;2.50;;
39982;SDS011;25670;44.782;10.356;2022-09-09T04:43:45;5.15;;;3.10;;
39982;SDS011;25670;44.782;10.356;2022-09-09T04:46:14;16.67;;;8.00;;
39982;SDS011;25670;44.782;10.356;2022-09-09T04:48:43;13.32;;;10.20;;
39982;SDS011;25670;44.782;10.356;2022-09-09T04:51:11;8.02;;;2.97;;
39982;SDS011;25670;44.782;10.356;2022-09-09T04:53:39;2.97;;;1.88;;
39982;SDS011;25670;44.782;10.356;2022-09-09T04:58:40;4.47;;;2.63;;
39982;SDS011;25670;44.782;10.356;2022-09-09T05:01:12;2.67;;;2.00;;
39982;SDS011;25670;44.782;10.356;2022-09-09T05:03:45;4.50;;;2.13;;
39982;SDS011;25670;44.782;10.356;2022-09-09T05:06:18;6.35;;;1.80;;
39982;SDS011;25670;44.782;10.356;2022-09-09T05:08:48;9.23;;;1.88;;
39982;SDS011;25670;44.782;10.356;2022-09-09T05:13:51;2.10;;;1.10;;
39982;SDS011;25670;44.782;10.356;2022-09-09T05:16:19;1.45;;;1.25;;
39982;SDS011;25670;44.782;10.356;2022-09-09T05:18:46;7.00;;;1.77;;
39982;SDS011;25670;44.782;10.356;2022-09-09T05:21:14;2.03;;;1.33;;
39982;SDS011;25670;44.782;10.356;2022-09-09T05:23:41;3.45;;;1.67;;
39982;SDS011;25670;44.782;10.356;2022-09-09T05:26:09;5.65;;;1.77;;
39982;SDS011;25670;44.782;10.356;2022-09-09T05:28:39;4.95;;;1.75;;
39982;SDS011;25670;44.782;10.356;2022-09-09T05:31:06;4.20;;;1.50;;
39982;SDS011;25670;44.782;10.356;2022-09-09T05:33:35;3.38;;;1.77;;
39982;SDS011;25670;44.782;10.356;2022-09-09T05:36:05;4.43;;;1.67;;
39982;SDS011;25670;44.782;10.356;2022-09-09T05:38:34;3.65;;;1.17;;
39982;SDS011;25670;44.782;10.356;2022-09-09T05:41:02;8.38;;;1.10;;
39982;SDS011;25670;44.782;10.356;2022-09-09T05:43:29;3.85;;;1.38;;
39982;SDS011;25670;44.782;10.356;2022-09-09T05:46:02;1.92;;;0.90;;
39982;SDS011;25670;44.782;10.356;2022-09-09T05:48:30;3.22;;;1.35;;
39982;SDS011;25670;44.782;10.356;2022-09-09T05:50:58;10.15;;;1.35;;
39982;SDS011;25670;44.782;10.356;2022-09-09T05:53:26;1.27;;;1.17;;
39982;SDS011;25670;44.782;10.356;2022-09-09T05:56:06;2.40;;;1.05;;
39982;SDS011;25670;44.782;10.356;2022-09-09T05:58:36;3.80;;;1.42;;
39982;SDS011;25670;44.782;10.356;2022-09-09T06:01:07;3.65;;;1.58;;
39982;SDS011;25670;44.782;10.356;2022-09-09T06:03:41;3.40;;;1.02;;
39982;SDS011;25670;44.782;10.356;2022-09-09T06:06:10;4.80;;;1.20;;
39982;SDS011;25670;44.782;10.356;2022-09-09T06:08:39;4.82;;;1.20;;
39982;SDS011;25670;44.782;10.356;2022-09-09T06:11:08;1.80;;;1.17;;
39982;SDS011;25670;44.782;10.356;2022-09-09T06:13:38;9.68;;;1.40;;
39982;SDS011;25670;44.782;10.356;2022-09-09T06:16:06;7.22;;;1.50;;
39982;SDS011;25670;44.782;10.356;2022-09-09T06:18:40;1.90;;;1.30;;
39982;SDS011;25670;44.782;10.356;2022-09-09T06:21:08;7.55;;;1.15;;
39982;SDS011;25670;44.782;10.356;2022-09-09T06:23:42;7.78;;;1.13;;
39982;SDS011;25670;44.782;10.356;2022-09-09T06:26:14;5.30;;;1.85;;
39982;SDS011;25670;44.782;10.356;2022-09-09T06:28:44;4.20;;;2.30;;
39982;SDS011;25670;44.782;10.356;2022-09-09T06:31:12;5.22;;;1.90;;
39982;SDS011;25670;44.782;10.356;2022-09-09T06:33:41;6.78;;;1.95;;
39982;SDS011;25670;44.782;10.356;2022-09-09T06:36:14;3.90;;;2.50;;
39982;SDS011;25670;44.782;10.356;2022-09-09T06:38:45;2.67;;;1.95;;
39982;SDS011;25670;44.782;10.356;2022-09-09T06:41:14;1.92;;;1.83;;
39982;SDS011;25670;44.782;10.356;2022-09-09T06:43:44;6.97;;;2.10;;
39982;SDS011;25670;44.782;10.356;2022-09-09T06:46:13;2.58;;;1.70;;
39982;SDS011;25670;44.782;10.356;2022-09-09T06:48:50;8.15;;;2.20;;
39982;SDS011;25670;44.782;10.356;2022-09-09T06:51:17;7.18;;;2.35;;
39982;SDS011;25670;44.782;10.356;2022-09-09T06:53:45;8.77;;;4.25;;
39982;SDS011;25670;44.782;10.356;2022-09-09T06:56:17;6.22;;;5.55;;
39982;SDS011;25670;44.782;10.356;2022-09-09T06:58:44;12.80;;;6.13;;
39982;SDS011;25670;44.782;10.356;2022-09-09T07:01:17;14.93;;;7.85;;
39982;SDS011;25670;44.782;10.356;2022-09-09T07:03:46;19.10;;;8.27;;
39982;SDS011;25670;44.782;10.356;2022-09-09T07:06:14;11.27;;;7.68;;
39982;SDS011;25670;44.782;10.356;2022-09-09T07:08:47;17.17;;;8.57;;
39982;SDS011;25670;44.782;10.356;2022-09-09T07:13:42;18.75;;;11.75;;
39982;SDS011;25670;44.782;10.356;2022-09-09T07:16:09;13.07;;;10.57;;
39982;SDS011;25670;44.782;10.356;2022-09-09T07:18:37;20.70;;;12.05;;
39982;SDS011;25670;44.782;10.356;2022-09-09T07:21:03;29.95;;;13.70;;
39982;SDS011;25670;44.782;10.356;2022-09-09T07:23:30;21.55;;;13.00;;
39982;SDS011;25670;44.782;10.356;2022-09-09T07:25:57;27.25;;;14.38;;
39982;SDS011;25670;44.782;10.356;2022-09-09T07:28:24;23.27;;;15.50;;
39982;SDS011;25670;44.782;10.356;2022-09-09T07:31:01;23.25;;;15.65;;
39982;SDS011;25670;44.782;10.356;2022-09-09T07:33:29;24.08;;;17.27;;
39982;SDS011;25670;44.782;10.356;2022-09-09T07:36:07;30.30;;;19.40;;
39982;SDS011;25670;44.782;10.356;2022-09-09T07:38:38;31.23;;;18.05;;
39982;SDS011;25670;44.782;10.356;2022-09-09T07:41:06;32.30;;;18.70;;
39982;SDS011;25670;44.782;10.356;2022-09-09T07:43:38;29.27;;;17.88;;
39982;SDS011;25670;44.782;10.356;2022-09-09T07:46:05;29.08;;;17.38;;
39982;SDS011;25670;44.782;10.356;2022-09-09T07:48:32;27.30;;;17.52;;
39982;SDS011;25670;44.782;10.356;2022-09-09T07:51:03;22.70;;;16.60;;
39982;SDS011;25670;44.782;10.356;2022-09-09T07:53:34;30.27;;;17.30;;
39982;SDS011;25670;44.782;10.356;2022-09-09T07:56:03;41.30;;;18.75;;
39982;SDS011;25670;44.782;10.356;2022-09-09T07:58:35;41.70;;;18.30;;
39982;SDS011;25670;44.782;10.356;2022-09-09T08:01:09;33.80;;;18.83;;
39982;SDS011;25670;44.782;10.356;2022-09-09T08:03:38;29.27;;;18.15;;
39982;SDS011;25670;44.782;10.356;2022-09-09T08:06:05;42.90;;;19.92;;
39982;SDS011;25670;44.782;10.356;2022-09-09T08:08:34;32.13;;;19.45;;
39982;SDS011;25670;44.782;10.356;2022-09-09T08:11:06;34.35;;;19.40;;
39982;SDS011;25670;44.782;10.356;2022-09-09T08:13:34;32.85;;;18.75;;
39982;SDS011;25670;44.782;10.356;2022-09-09T08:16:07;27.67;;;18.33;;
39982;SDS011;25670;44.782;10.356;2022-09-09T08:18:36;34.90;;;19.25;;
39982;SDS011;25670;44.782;10.356;2022-09-09T08:21:17;28.48;;;18.50;;
39982;SDS011;25670;44.782;10.356;2022-09-09T08:23:47;36.22;;;19.25;;
39982;SDS011;25670;44.782;10.356;2022-09-09T08:26:15;35.75;;;20.52;;
39982;SDS011;25670;44.782;10.356;2022-09-09T08:28:45;37.08;;;20.42;;
39982;SDS011;25670;44.782;10.356;2022-09-09T08:31:14;35.95;;;21.13;;
39982;SDS011;25670;44.782;10.356;2022-09-09T08:33:42;33.05;;;20.77;;
39982;SDS011;25670;44.782;10.356;2022-09-09T08:36:12;37.67;;;21.23;;
39982;SDS011;25670;44.782;10.356;2022-09-09T08:38:41;33.80;;;20.77;;
39982;SDS011;25670;44.782;10.356;2022-09-09T08:43:47;43.95;;;21.40;;
39982;SDS011;25670;44.782;10.356;2022-09-09T08:46:39;31.70;;;22.35;;
39982;SDS011;25670;44.782;10.356;2022-09-09T08:53:09;38.47;;;23.08;;
39982;SDS011;25670;44.782;10.356;2022-09-09T08:57:47;41.58;;;23.33;;
39982;SDS011;25670;44.782;10.356;2022-09-09T09:00:19;45.80;;;24.42;;
39982;SDS011;25670;44.782;10.356;2022-09-09T09:06:01;41.67;;;22.95;;
39982;SDS011;25670;44.782;10.356;2022-09-09T09:08:44;43.60;;;23.95;;
39982;SDS011;25670;44.782;10.356;2022-09-09T09:11:18;39.72;;;23.15;;
39982;SDS011;25670;44.782;10.356;2022-09-09T09:13:46;35.55;;;20.35;;
39982;SDS011;25670;44.782;10.356;2022-09-09T09:18:53;36.58;;;20.50;;
39982;SDS011;25670;44.782;10.356;2022-09-09T09:21:25;32.88;;;20.17;;
39982;SDS011;25670;44.782;10.356;2022-09-09T09:24:02;34.05;;;18.65;;
39982;SDS011;25670;44.782;10.356;2022-09-09T09:26:41;35.97;;;19.35;;
39982;SDS011;25670;44.782;10.356;2022-09-09T09:29:10;32.55;;;17.75;;
39982;SDS011;25670;44.782;10.356;2022-09-09T09:31:51;36.67;;;18.63;;
39982;SDS011;25670;44.782;10.356;2022-09-09T09:34:23;29.00;;;16.48;;
39982;SDS011;25670;44.782;10.356;2022-09-09T09:36:57;29.17;;;18.35;;
39982;SDS011;25670;44.782;10.356;2022-09-09T09:39:32;34.58;;;18.92;;
39982;SDS011;25670;44.782;10.356;2022-09-09T09:42:22;29.40;;;16.33;;
39982;SDS011;25670;44.782;10.356;2022-09-09T09:44:54;28.27;;;17.75;;
39982;SDS011;25670;44.782;10.356;2022-09-09T09:47:22;27.55;;;15.88;;
39982;SDS011;25670;44.782;10.356;2022-09-09T09:50:16;30.27;;;13.77;;
39982;SDS011;25670;44.782;10.356;2022-09-09T09:52:53;13.45;;;10.75;;
39982;SDS011;25670;44.782;10.356;2022-09-09T09:55:22;22.75;;;13.05;;
39982;SDS011;25670;44.782;10.356;2022-09-09T09:57:50;22.85;;;12.93;;
39982;SDS011;25670;44.782;10.356;2022-09-09T10:00:19;22.30;;;14.10;;
39982;SDS011;25670;44.782;10.356;2022-09-09T10:05:29;21.85;;;12.50;;
39982;SDS011;25670;44.782;10.356;2022-09-09T10:19:03;16.20;;;10.88;;
39982;SDS011;25670;44.782;10.356;2022-09-09T10:30:03;17.10;;;12.93;;
39982;SDS011;25670;44.782;10.356;2022-09-09T10:32:49;23.60;;;13.02;;
39982;SDS011;25670;44.782;10.356;2022-09-09T10:46:01;19.42;;;13.00;;
39982;SDS011;25670;44.782;10.356;2022-09-09T10:57:08;9.13;;;5.93;;
39982;SDS011;25670;44.782;10.356;2022-09-09T10:59:59;16.10;;;6.72;;
39982;SDS011;25670;44.782;10.356;2022-09-09T11:02:33;11.57;;;6.00;;
39982;SDS011;25670;44.782;10.356;2022-09-09T11:05:02;5.40;;;4.82;;
39982;SDS011;25670;44.782;10.356;2022-09-09T11:07:40;7.53;;;5.10;;
39982;SDS011;25670;44.782;10.356;2022-09-09T11:12:55;7.28;;;5.40;;
39982;SDS011;25670;44.782;10.356;2022-09-09T11:15:33;5.82;;;5.30;;
39982;SDS011;25670;44.782;10.356;2022-09-09T11:18:07;5.38;;;4.13;;
39982;SDS011;25670;44.782;10.356;2022-09-09T11:20:44;6.22;;;4.60;;
39982;SDS011;25670;44.782;10.356;2022-09-09T11:23:16;6.90;;;3.55;;
39982;SDS011;25670;44.782;10.356;2022-09-09T11:25:53;5.38;;;2.72;;
39982;SDS011;25670;44.782;10.356;2022-09-09T11:44:39;6.00;;;3.67;;
39982;SDS011;25670;44.782;10.356;2022-09-09T11:47:23;8.90;;;3.35;;
39982;SDS011;25670;44.782;10.356;2022-09-09T11:52:41;6.28;;;3.08;;
39982;SDS011;25670;44.782;10.356;2022-09-09T11:58:05;4.60;;;2.33;;
39982;SDS011;25670;44.782;10.356;2022-09-09T12:00:46;6.75;;;3.45;;
39982;SDS011;25670;44.782;10.356;2022-09-09T12:11:10;9.10;;;2.38;;
39982;SDS011;25670;44.782;10.356;2022-09-09T12:13:37;3.47;;;2.25;;
39982;SDS011;25670;44.782;10.356;2022-09-09T12:16:03;2.88;;;2.60;;
39982;SDS011;25670;44.782;10.356;2022-09-09T12:18:36;5.93;;;2.50;;
39982;SDS011;25670;44.782;10.356;2022-09-09T12:24:08;5.72;;;1.70;;
39982;SDS011;25670;44.782;10.356;2022-09-09T12:32:26;4.10;;;2.17;;
39982;SDS011;25670;44.782;10.356;2022-09-09T12:34:38;5.25;;;2.47;;
39982;SDS011;25670;44.782;10.356;2022-09-09T12:37:23;2.10;;;1.92;;
39982;SDS011;25670;44.782;10.356;2022-09-09T12:40:05;4.22;;;1.58;;
39982;SDS011;25670;44.782;10.356;2022-09-09T12:42:44;4.22;;;1.73;;
39982;SDS011;25670;44.782;10.356;2022-09-09T12:45:15;2.90;;;1.50;;
39982;SDS011;25670;44.782;10.356;2022-09-09T12:47:56;5.65;;;1.70;;
39982;SDS011;25670;44.782;10.356;2022-09-09T12:50:27;5.28;;;1.80;;
39982;SDS011;25670;44.782;10.356;2022-09-09T12:56:01;2.20;;;1.42;;
39982;SDS011;25670;44.782;10.356;2022-09-09T12:58:36;1.98;;;1.45;;
39982;SDS011;25670;44.782;10.356;2022-09-09T13:01:04;1.40;;;1.10;;
39982;SDS011;25670;44.782;10.356;2022-09-09T13:03:32;5.18;;;1.73;;
39982;SDS011;25670;44.782;10.356;2022-09-09T13:06:10;1.77;;;1.30;;
39982;SDS011;25670;44.782;10.356;2022-09-09T13:08:39;5.20;;;1.27;;
39982;SDS011;25670;44.782;10.356;2022-09-09T13:11:07;3.30;;;1.40;;
39982;SDS011;25670;44.782;10.356;2022-09-09T13:13:40;4.45;;;1.48;;
39982;SDS011;25670;44.782;10.356;2022-09-09T13:16:20;2.28;;;1.30;;
39982;SDS011;25670;44.782;10.356;2022-09-09T13:19:01;3.33;;;1.67;;
39982;SDS011;25670;44.782;10.356;2022-09-09T13:21:36;2.03;;;1.33;;
39982;SDS011;25670;44.782;10.356;2022-09-09T13:24:23;1.88;;;0.95;;
39982;SDS011;25670;44.782;10.356;2022-09-09T13:27:04;3.90;;;1.33;;
39982;SDS011;25670;44.782;10.356;2022-09-09T13:29:53;2.15;;;1.02;;
39982;SDS011;25670;44.782;10.356;2022-09-09T13:32:24;4.53;;;1.55;;
39982;SDS011;25670;44.782;10.356;2022-09-09T13:34:55;3.85;;;1.17;;
39982;SDS011;25670;44.782;10.356;2022-09-09T13:37:36;1.75;;;1.20;;
39982;SDS011;25670;44.782;10.356;2022-09-09T13:40:06;4.43;;;1.52;;
39982;SDS011;25670;44.782;10.356;2022-09-09T13:42:43;1.70;;;1.05;;
39982;SDS011;25670;44.782;10.356;2022-09-09T13:45:18;8.25;;;1.27;;
39982;SDS011;25670;44.782;10.356;2022-09-09T13:47:46;2.13;;;1.00;;
39982;SDS011;25670;44.782;10.356;2022-09-09T13:50:20;4.28;;;1.38;;
39982;SDS011;25670;44.782;10.356;2022-09-09T13:52:48;1.48;;;0.93;;
39982;SDS011;25670;44.782;10.356;2022-09-09T13:55:17;1.38;;;0.80;;
39982;SDS011;25670;44.782;10.356;2022-09-09T13:57:57;2.25;;;1.00;;
39982;SDS011;25670;44.782;10.356;2022-09-09T14:00:29;5.03;;;2.03;;
39982;SDS011;25670;44.782;10.356;2022-09-09T14:02:57;5.55;;;1.45;;
39982;SDS011;25670;44.782;10.356;2022-09-09T14:05:23;3.92;;;1.88;;
39982;SDS011;25670;44.782;10.356;2022-09-09T14:07:50;4.20;;;1.30;;
39982;SDS011;25670;44.782;10.356;2022-09-09T14:10:16;6.65;;;1.50;;
39982;SDS011;25670;44.782;10.356;2022-09-09T14:12:43;2.55;;;0.95;;
39982;SDS011;25670;44.782;10.356;2022-09-09T14:15:10;5.85;;;1.58;;
39982;SDS011;25670;44.782;10.356;2022-09-09T14:17:37;6.60;;;1.10;;
39982;SDS011;25670;44.782;10.356;2022-09-09T14:20:04;3.53;;;1.30;;
39982;SDS011;25670;44.782;10.356;2022-09-09T14:22:33;1.90;;;1.20;;
39982;SDS011;25670;44.782;10.356;2022-09-09T14:24:59;3.67;;;0.90;;
39982;SDS011;25670;44.782;10.356;2022-09-09T14:27:26;2.15;;;1.27;;
39982;SDS011;25670;44.782;10.356;2022-09-09T14:29:52;2.40;;;1.00;;
39982;SDS011;25670;44.782;10.356;2022-09-09T14:32:19;4.20;;;1.00;;
39982;SDS011;25670;44.782;10.356;2022-09-09T14:34:45;2.67;;;1.30;;
39982;SDS011;25670;44.782;10.356;2022-09-09T14:37:12;6.22;;;1.00;;
39982;SDS011;25670;44.782;10.356;2022-09-09T14:39:39;3.95;;;1.27;;
39982;SDS011;25670;44.782;10.356;2022-09-09T14:42:05;2.13;;;0.98;;
39982;SDS011;25670;44.782;10.356;2022-09-09T14:44:31;1.40;;;0.93;;
39982;SDS011;25670;44.782;10.356;2022-09-09T14:46:59;1.95;;;1.13;;
39982;SDS011;25670;44.782;10.356;2022-09-09T14:49:25;3.55;;;1.02;;
39982;SDS011;25670;44.782;10.356;2022-09-09T14:51:51;1.67;;;0.80;;
39982;SDS011;25670;44.782;10.356;2022-09-09T14:54:17;4.32;;;2.50;;
39982;SDS011;25670;44.782;10.356;2022-09-09T14:56:44;5.53;;;1.60;;
39982;SDS011;25670;44.782;10.356;2022-09-09T14:59:10;2.38;;;1.00;;
39982;SDS011;25670;44.782;10.356;2022-09-09T15:01:36;3.80;;;1.15;;
39982;SDS011;25670;44.782;10.356;2022-09-09T15:04:04;4.70;;;1.10;;
39982;SDS011;25670;44.782;10.356;2022-09-09T15:06:32;3.08;;;1.00;;
39982;SDS011;25670;44.782;10.356;2022-09-09T15:09:02;4.85;;;1.42;;
39982;SDS011;25670;44.782;10.356;2022-09-09T15:11:29;2.22;;;1.27;;
39982;SDS011;25670;44.782;10.356;2022-09-09T15:13:58;4.22;;;1.20;;
39982;SDS011;25670;44.782;10.356;2022-09-09T15:16:25;3.30;;;1.27;;
39982;SDS011;25670;44.782;10.356;2022-09-09T15:18:56;4.03;;;1.13;;
39982;SDS011;25670;44.782;10.356;2022-09-09T15:21:24;1.10;;;0.95;;
39982;SDS011;25670;44.782;10.356;2022-09-09T15:23:52;4.38;;;1.30;;
39982;SDS011;25670;44.782;10.356;2022-09-09T15:26:19;2.88;;;1.42;;
39982;SDS011;25670;44.782;10.356;2022-09-09T15:28:46;5.07;;;1.05;;
39982;SDS011;25670;44.782;10.356;2022-09-09T15:31:14;5.72;;;1.40;;
39982;SDS011;25670;44.782;10.356;2022-09-09T15:33:52;5.78;;;1.45;;
39982;SDS011;25670;44.782;10.356;2022-09-09T15:36:27;9.65;;;1.05;;
39982;SDS011;25670;44.782;10.356;2022-09-09T15:39:00;2.95;;;1.25;;
39982;SDS011;25670;44.782;10.356;2022-09-09T15:41:28;2.72;;;1.35;;
39982;SDS011;25670;44.782;10.356;2022-09-09T15:43:57;3.53;;;1.55;;
39982;SDS011;25670;44.782;10.356;2022-09-09T15:48:53;3.55;;;1.40;;
39982;SDS011;25670;44.782;10.356;2022-09-09T15:51:28;3.63;;;1.17;;
39982;SDS011;25670;44.782;10.356;2022-09-09T15:53:55;1.52;;;1.00;;
39982;SDS011;25670;44.782;10.356;2022-09-09T15:56:22;2.67;;;1.05;;
39982;SDS011;25670;44.782;10.356;2022-09-09T15:58:49;2.30;;;1.20;;
39982;SDS011;25670;44.782;10.356;2022-09-09T16:01:16;3.08;;;1.00;;
39982;SDS011;25670;44.782;10.356;2022-09-09T16:03:44;5.93;;;2.20;;
39982;SDS011;25670;44.782;10.356;2022-09-09T16:06:16;2.28;;;1.08;;
39982;SDS011;25670;44.782;10.356;2022-09-09T16:08:45;5.80;;;1.15;;
39982;SDS011;25670;44.782;10.356;2022-09-09T16:11:30;7.50;;;1.52;;
39982;SDS011;25670;44.782;10.356;2022-09-09T16:13:58;2.85;;;1.00;;
39982;SDS011;25670;44.782;10.356;2022-09-09T16:16:26;3.63;;;1.40;;
39982;SDS011;25670;44.782;10.356;2022-09-09T16:18:54;3.40;;;1.95;;
39982;SDS011;25670;44.782;10.356;2022-09-09T16:21:33;4.88;;;1.73;;
39982;SDS011;25670;44.782;10.356;2022-09-09T16:24:03;7.47;;;1.85;;
39982;SDS011;25670;44.782;10.356;2022-09-09T16:26:31;6.55;;;2.30;;
39982;SDS011;25670;44.782;10.356;2022-09-09T16:28:59;2.90;;;1.40;;
39982;SDS011;25670;44.782;10.356;2022-09-09T16:31:27;2.75;;;2.25;;
39982;SDS011;25670;44.782;10.356;2022-09-09T16:33:54;4.40;;;1.48;;
39982;SDS011;25670;44.782;10.356;2022-09-09T16:36:25;11.35;;;1.70;;
39982;SDS011;25670;44.782;10.356;2022-09-09T16:38:53;6.63;;;1.77;;
39982;SDS011;25670;44.782;10.356;2022-09-09T16:41:20;2.30;;;1.80;;
39982;SDS011;25670;44.782;10.356;2022-09-09T16:43:47;5.03;;;1.85;;
39982;SDS011;25670;44.782;10.356;2022-09-09T16:46:29;4.15;;;2.30;;
39982;SDS011;25670;44.782;10.356;2022-09-09T16:48:57;4.18;;;1.67;;
39982;SDS011;25670;44.782;10.356;2022-09-09T16:51:26;7.55;;;1.60;;
39982;SDS011;25670;44.782;10.356;2022-09-09T16:53:56;5.82;;;1.98;;
39982;SDS011;25670;44.782;10.356;2022-09-09T16:56:25;5.00;;;1.90;;
39982;SDS011;25670;44.782;10.356;2022-09-09T16:58:53;7.57;;;1.80;;
39982;SDS011;25670;44.782;10.356;2022-09-09T17:01:25;5.82;;;2.17;;
39982;SDS011;25670;44.782;10.356;2022-09-09T17:03:54;2.75;;;1.75;;
39982;SDS011;25670;44.782;10.356;2022-09-09T17:06:21;3.50;;;2.92;;
39982;SDS011;25670;44.782;10.356;2022-09-09T17:08:53;11.90;;;2.60;;
39982;SDS011;25670;44.782;10.356;2022-09-09T17:11:24;2.50;;;1.98;;
39982;SDS011;25670;44.782;10.356;2022-09-09T17:13:50;6.15;;;2.13;;
39982;SDS011;25670;44.782;10.356;2022-09-09T17:16:18;6.78;;;1.90;;
39982;SDS011;25670;44.782;10.356;2022-09-09T17:18:47;4.10;;;1.88;;
39982;SDS011;25670;44.782;10.356;2022-09-09T17:21:16;2.33;;;1.90;;
39982;SDS011;25670;44.782;10.356;2022-09-09T17:23:44;3.33;;;2.33;;
39982;SDS011;25670;44.782;10.356;2022-09-09T17:26:12;7.85;;;1.90;;
39982;SDS011;25670;44.782;10.356;2022-09-09T17:28:40;3.17;;;1.83;;